sensor_id;sensor_type;location;lat;lon;timestamp;P1;durP1;ratioP1;P2;durP2;ratioP2
30966;SDS011;17649;51.836;8.330;2023-12-20T00:02:32;18.10;;;9.53;;
30966;SDS011;17649;51.836;8.330;2023-12-20T00:05:32;18.57;;;9.53;;
30966;SDS011;17649;51.836;8.330;2023-12-20T00:08:33;17.63;;;8.67;;
30966;SDS011;17649;51.836;8.330;2023-12-20T00:11:33;17.90;;;8.87;;
30966;SDS011;17649;51.836;8.330;2023-12-20T00:14:34;13.97;;;7.73;;
30966;SDS011;17649;51.836;8.330;2023-12-20T00:17:34;15.63;;;7.53;;
30966;SDS011;17649;51.836;8.330;2023-12-20T00:20:34;14.53;;;7.30;;
30966;SDS011;17649;51.836;8.330;2023-12-20T00:23:35;16.48;;;6.60;;
30966;SDS011;17649;51.836;8.330;2023-12-20T00:26:36;16.10;;;7.00;;
30966;SDS011;17649;51.836;8.330;2023-12-20T00:29:36;13.10;;;6.33;;
30966;SDS011;17649;51.836;8.330;2023-12-20T00:32:36;13.63;;;5.97;;
30966;SDS011;17649;51.836;8.330;2023-12-20T00:35:37;14.20;;;5.50;;
30966;SDS011;17649;51.836;8.330;2023-12-20T00:38:37;13.23;;;6.20;;
30966;SDS011;17649;51.836;8.330;2023-12-20T00:41:37;18.40;;;6.05;;
30966;SDS011;17649;51.836;8.330;2023-12-20T00:44:37;10.77;;;5.10;;
30966;SDS011;17649;51.836;8.330;2023-12-20T00:47:38;12.90;;;5.10;;
30966;SDS011;17649;51.836;8.330;2023-12-20T00:50:38;16.60;;;5.07;;
30966;SDS011;17649;51.836;8.330;2023-12-20T00:53:39;12.63;;;4.77;;
30966;SDS011;17649;51.836;8.330;2023-12-20T00:56:39;16.90;;;5.40;;
30966;SDS011;17649;51.836;8.330;2023-12-20T00:59:39;9.47;;;5.60;;
30966;SDS011;17649;51.836;8.330;2023-12-20T01:02:40;13.30;;;5.47;;
30966;SDS011;17649;51.836;8.330;2023-12-20T01:05:40;20.53;;;6.20;;
30966;SDS011;17649;51.836;8.330;2023-12-20T01:08:40;12.03;;;5.37;;
30966;SDS011;17649;51.836;8.330;2023-12-20T01:11:41;16.97;;;6.13;;
30966;SDS011;17649;51.836;8.330;2023-12-20T01:14:41;13.30;;;6.17;;
30966;SDS011;17649;51.836;8.330;2023-12-20T01:17:42;15.07;;;6.17;;
30966;SDS011;17649;51.836;8.330;2023-12-20T01:20:42;18.10;;;7.00;;
30966;SDS011;17649;51.836;8.330;2023-12-20T01:23:44;19.40;;;7.30;;
30966;SDS011;17649;51.836;8.330;2023-12-20T01:26:44;18.27;;;7.93;;
30966;SDS011;17649;51.836;8.330;2023-12-20T01:29:44;20.17;;;8.20;;
30966;SDS011;17649;51.836;8.330;2023-12-20T01:32:45;18.40;;;7.27;;
30966;SDS011;17649;51.836;8.330;2023-12-20T01:35:45;15.70;;;7.78;;
30966;SDS011;17649;51.836;8.330;2023-12-20T01:38:45;20.50;;;8.23;;
30966;SDS011;17649;51.836;8.330;2023-12-20T01:41:46;23.47;;;8.13;;
30966;SDS011;17649;51.836;8.330;2023-12-20T01:44:46;19.52;;;6.60;;
30966;SDS011;17649;51.836;8.330;2023-12-20T01:47:47;15.82;;;6.95;;
30966;SDS011;17649;51.836;8.330;2023-12-20T01:50:48;20.47;;;6.13;;
30966;SDS011;17649;51.836;8.330;2023-12-20T01:53:49;16.90;;;6.60;;
30966;SDS011;17649;51.836;8.330;2023-12-20T01:56:49;17.42;;;6.43;;
30966;SDS011;17649;51.836;8.330;2023-12-20T01:59:50;23.00;;;7.70;;
30966;SDS011;17649;51.836;8.330;2023-12-20T02:02:51;16.50;;;6.87;;
30966;SDS011;17649;51.836;8.330;2023-12-20T02:05:53;15.95;;;6.63;;
30966;SDS011;17649;51.836;8.330;2023-12-20T02:08:53;17.17;;;7.20;;
30966;SDS011;17649;51.836;8.330;2023-12-20T02:11:54;21.63;;;7.47;;
30966;SDS011;17649;51.836;8.330;2023-12-20T02:14:55;20.65;;;8.05;;
30966;SDS011;17649;51.836;8.330;2023-12-20T02:17:55;20.20;;;7.72;;
30966;SDS011;17649;51.836;8.330;2023-12-20T02:20:56;19.07;;;7.97;;
30966;SDS011;17649;51.836;8.330;2023-12-20T02:23:56;18.83;;;7.63;;
30966;SDS011;17649;51.836;8.330;2023-12-20T02:26:57;20.87;;;8.17;;
30966;SDS011;17649;51.836;8.330;2023-12-20T02:29:57;19.17;;;8.57;;
30966;SDS011;17649;51.836;8.330;2023-12-20T02:32:59;24.47;;;8.50;;
30966;SDS011;17649;51.836;8.330;2023-12-20T02:36:01;23.40;;;8.93;;
30966;SDS011;17649;51.836;8.330;2023-12-20T02:39:01;21.85;;;9.10;;
30966;SDS011;17649;51.836;8.330;2023-12-20T02:42:01;25.23;;;9.90;;
30966;SDS011;17649;51.836;8.330;2023-12-20T02:45:02;21.77;;;8.53;;
30966;SDS011;17649;51.836;8.330;2023-12-20T02:48:02;18.77;;;8.80;;
30966;SDS011;17649;51.836;8.330;2023-12-20T02:51:03;33.90;;;10.35;;
30966;SDS011;17649;51.836;8.330;2023-12-20T02:54:04;20.80;;;8.23;;
30966;SDS011;17649;51.836;8.330;2023-12-20T02:57:05;26.17;;;9.07;;
30966;SDS011;17649;51.836;8.330;2023-12-20T03:00:06;21.27;;;9.80;;
30966;SDS011;17649;51.836;8.330;2023-12-20T03:03:08;28.77;;;10.40;;
30966;SDS011;17649;51.836;8.330;2023-12-20T03:06:08;29.33;;;10.93;;
30966;SDS011;17649;51.836;8.330;2023-12-20T03:09:29;30.17;;;11.73;;
30966;SDS011;17649;51.836;8.330;2023-12-20T03:12:29;27.83;;;11.35;;
30966;SDS011;17649;51.836;8.330;2023-12-20T03:15:29;32.00;;;11.80;;
30966;SDS011;17649;51.836;8.330;2023-12-20T03:18:30;28.83;;;11.33;;
30966;SDS011;17649;51.836;8.330;2023-12-20T03:21:30;26.08;;;9.88;;
30966;SDS011;17649;51.836;8.330;2023-12-20T03:24:30;26.70;;;10.07;;
30966;SDS011;17649;51.836;8.330;2023-12-20T03:27:31;30.57;;;10.00;;
30966;SDS011;17649;51.836;8.330;2023-12-20T03:30:31;22.92;;;9.80;;
30966;SDS011;17649;51.836;8.330;2023-12-20T03:33:31;20.33;;;8.50;;
30966;SDS011;17649;51.836;8.330;2023-12-20T03:36:31;20.47;;;7.87;;
30966;SDS011;17649;51.836;8.330;2023-12-20T03:39:32;22.50;;;8.38;;
30966;SDS011;17649;51.836;8.330;2023-12-20T03:42:32;27.67;;;8.40;;
30966;SDS011;17649;51.836;8.330;2023-12-20T03:45:33;24.00;;;7.97;;
30966;SDS011;17649;51.836;8.330;2023-12-20T03:48:33;21.33;;;8.23;;
30966;SDS011;17649;51.836;8.330;2023-12-20T03:51:33;26.03;;;8.40;;
30966;SDS011;17649;51.836;8.330;2023-12-20T03:54:37;20.03;;;8.10;;
30966;SDS011;17649;51.836;8.330;2023-12-20T03:57:37;24.10;;;8.57;;
30966;SDS011;17649;51.836;8.330;2023-12-20T04:00:37;19.60;;;7.97;;
30966;SDS011;17649;51.836;8.330;2023-12-20T04:03:38;19.80;;;8.30;;
30966;SDS011;17649;51.836;8.330;2023-12-20T04:06:40;24.83;;;8.83;;
30966;SDS011;17649;51.836;8.330;2023-12-20T04:09:40;23.50;;;7.83;;
30966;SDS011;17649;51.836;8.330;2023-12-20T04:12:41;23.15;;;8.45;;
30966;SDS011;17649;51.836;8.330;2023-12-20T04:15:41;32.43;;;6.80;;
30966;SDS011;17649;51.836;8.330;2023-12-20T04:18:42;17.33;;;8.17;;
30966;SDS011;17649;51.836;8.330;2023-12-20T04:21:42;24.90;;;7.03;;
30966;SDS011;17649;51.836;8.330;2023-12-20T04:24:42;18.23;;;7.17;;
30966;SDS011;17649;51.836;8.330;2023-12-20T04:27:42;28.33;;;7.60;;
30966;SDS011;17649;51.836;8.330;2023-12-20T04:30:43;25.83;;;8.20;;
30966;SDS011;17649;51.836;8.330;2023-12-20T04:33:43;28.23;;;6.97;;
30966;SDS011;17649;51.836;8.330;2023-12-20T04:36:44;26.00;;;7.10;;
30966;SDS011;17649;51.836;8.330;2023-12-20T04:39:44;26.53;;;7.10;;
30966;SDS011;17649;51.836;8.330;2023-12-20T04:42:45;24.87;;;6.43;;
30966;SDS011;17649;51.836;8.330;2023-12-20T04:45:45;29.63;;;6.60;;
30966;SDS011;17649;51.836;8.330;2023-12-20T04:48:45;22.60;;;7.27;;
30966;SDS011;17649;51.836;8.330;2023-12-20T04:51:45;22.20;;;6.43;;
30966;SDS011;17649;51.836;8.330;2023-12-20T04:54:46;25.67;;;7.87;;
30966;SDS011;17649;51.836;8.330;2023-12-20T04:57:46;25.17;;;6.70;;
30966;SDS011;17649;51.836;8.330;2023-12-20T05:00:47;25.30;;;6.53;;
30966;SDS011;17649;51.836;8.330;2023-12-20T05:03:47;24.47;;;7.20;;
30966;SDS011;17649;51.836;8.330;2023-12-20T05:06:47;30.20;;;6.80;;
30966;SDS011;17649;51.836;8.330;2023-12-20T05:09:49;24.92;;;6.90;;
30966;SDS011;17649;51.836;8.330;2023-12-20T05:12:50;25.75;;;7.95;;
30966;SDS011;17649;51.836;8.330;2023-12-20T05:15:51;27.13;;;7.87;;
30966;SDS011;17649;51.836;8.330;2023-12-20T05:18:51;25.07;;;8.20;;
30966;SDS011;17649;51.836;8.330;2023-12-20T05:21:52;27.83;;;8.25;;
30966;SDS011;17649;51.836;8.330;2023-12-20T05:24:52;27.07;;;9.53;;
30966;SDS011;17649;51.836;8.330;2023-12-20T05:27:53;30.75;;;9.70;;
30966;SDS011;17649;51.836;8.330;2023-12-20T05:30:53;27.97;;;9.40;;
30966;SDS011;17649;51.836;8.330;2023-12-20T05:33:54;26.23;;;8.93;;
30966;SDS011;17649;51.836;8.330;2023-12-20T05:36:54;33.50;;;9.47;;
30966;SDS011;17649;51.836;8.330;2023-12-20T05:39:54;31.37;;;9.47;;
30966;SDS011;17649;51.836;8.330;2023-12-20T05:42:55;30.57;;;10.57;;
30966;SDS011;17649;51.836;8.330;2023-12-20T05:45:55;33.23;;;10.00;;
30966;SDS011;17649;51.836;8.330;2023-12-20T05:48:55;29.00;;;10.17;;
30966;SDS011;17649;51.836;8.330;2023-12-20T05:51:56;30.98;;;10.27;;
30966;SDS011;17649;51.836;8.330;2023-12-20T05:54:56;27.53;;;10.37;;
30966;SDS011;17649;51.836;8.330;2023-12-20T05:57:57;31.73;;;10.68;;
30966;SDS011;17649;51.836;8.330;2023-12-20T06:00:58;24.50;;;9.53;;
30966;SDS011;17649;51.836;8.330;2023-12-20T06:03:58;32.30;;;10.27;;
30966;SDS011;17649;51.836;8.330;2023-12-20T06:06:58;26.53;;;9.10;;
30966;SDS011;17649;51.836;8.330;2023-12-20T06:10:00;31.85;;;8.98;;
30966;SDS011;17649;51.836;8.330;2023-12-20T06:13:00;31.53;;;11.17;;
30966;SDS011;17649;51.836;8.330;2023-12-20T06:16:00;32.37;;;11.70;;
30966;SDS011;17649;51.836;8.330;2023-12-20T06:19:01;36.23;;;10.00;;
30966;SDS011;17649;51.836;8.330;2023-12-20T06:22:01;28.20;;;9.67;;
30966;SDS011;17649;51.836;8.330;2023-12-20T06:25:02;29.50;;;10.52;;
30966;SDS011;17649;51.836;8.330;2023-12-20T06:28:02;30.02;;;9.68;;
30966;SDS011;17649;51.836;8.330;2023-12-20T06:31:03;36.13;;;11.43;;
30966;SDS011;17649;51.836;8.330;2023-12-20T06:34:04;36.42;;;9.77;;
30966;SDS011;17649;51.836;8.330;2023-12-20T06:37:04;31.67;;;9.90;;
30966;SDS011;17649;51.836;8.330;2023-12-20T06:40:05;30.83;;;9.88;;
30966;SDS011;17649;51.836;8.330;2023-12-20T06:43:06;24.70;;;9.88;;
30966;SDS011;17649;51.836;8.330;2023-12-20T06:46:07;27.97;;;9.50;;
30966;SDS011;17649;51.836;8.330;2023-12-20T06:49:07;32.90;;;10.50;;
30966;SDS011;17649;51.836;8.330;2023-12-20T06:52:07;31.85;;;9.98;;
30966;SDS011;17649;51.836;8.330;2023-12-20T06:55:08;32.87;;;10.27;;
30966;SDS011;17649;51.836;8.330;2023-12-20T06:58:09;30.83;;;9.43;;
30966;SDS011;17649;51.836;8.330;2023-12-20T07:01:13;32.95;;;8.75;;
30966;SDS011;17649;51.836;8.330;2023-12-20T07:04:14;32.95;;;8.82;;
30966;SDS011;17649;51.836;8.330;2023-12-20T07:07:15;28.40;;;8.60;;
30966;SDS011;17649;51.836;8.330;2023-12-20T07:10:15;28.20;;;9.60;;
30966;SDS011;17649;51.836;8.330;2023-12-20T07:13:16;28.37;;;8.80;;
30966;SDS011;17649;51.836;8.330;2023-12-20T07:16:16;29.73;;;8.80;;
30966;SDS011;17649;51.836;8.330;2023-12-20T07:19:17;32.97;;;9.33;;
30966;SDS011;17649;51.836;8.330;2023-12-20T07:22:17;38.57;;;10.20;;
30966;SDS011;17649;51.836;8.330;2023-12-20T07:25:17;31.83;;;8.93;;
30966;SDS011;17649;51.836;8.330;2023-12-20T07:28:18;25.60;;;9.43;;
30966;SDS011;17649;51.836;8.330;2023-12-20T07:31:18;33.93;;;9.53;;
30966;SDS011;17649;51.836;8.330;2023-12-20T07:34:18;30.80;;;10.15;;
30966;SDS011;17649;51.836;8.330;2023-12-20T07:37:19;33.95;;;9.85;;
30966;SDS011;17649;51.836;8.330;2023-12-20T07:40:21;32.72;;;9.70;;
30966;SDS011;17649;51.836;8.330;2023-12-20T07:43:21;33.00;;;9.60;;
30966;SDS011;17649;51.836;8.330;2023-12-20T07:46:21;35.77;;;11.07;;
30966;SDS011;17649;51.836;8.330;2023-12-20T07:49:24;35.30;;;8.88;;
30966;SDS011;17649;51.836;8.330;2023-12-20T07:52:25;30.37;;;11.30;;
30966;SDS011;17649;51.836;8.330;2023-12-20T07:55:26;27.58;;;9.60;;
30966;SDS011;17649;51.836;8.330;2023-12-20T07:58:27;29.15;;;9.68;;
30966;SDS011;17649;51.836;8.330;2023-12-20T08:01:27;29.17;;;10.57;;
30966;SDS011;17649;51.836;8.330;2023-12-20T08:04:27;35.85;;;11.60;;
30966;SDS011;17649;51.836;8.330;2023-12-20T08:07:28;34.33;;;12.27;;
30966;SDS011;17649;51.836;8.330;2023-12-20T08:10:28;34.17;;;12.23;;
30966;SDS011;17649;51.836;8.330;2023-12-20T08:13:30;33.63;;;12.70;;
30966;SDS011;17649;51.836;8.330;2023-12-20T08:16:30;41.77;;;14.13;;
30966;SDS011;17649;51.836;8.330;2023-12-20T08:19:30;37.30;;;13.53;;
30966;SDS011;17649;51.836;8.330;2023-12-20T08:22:31;40.57;;;14.73;;
30966;SDS011;17649;51.836;8.330;2023-12-20T08:25:31;37.43;;;15.77;;
30966;SDS011;17649;51.836;8.330;2023-12-20T08:28:31;41.40;;;15.77;;
30966;SDS011;17649;51.836;8.330;2023-12-20T08:31:32;37.77;;;15.27;;
30966;SDS011;17649;51.836;8.330;2023-12-20T08:34:32;39.53;;;15.30;;
30966;SDS011;17649;51.836;8.330;2023-12-20T08:37:33;37.70;;;16.37;;
30966;SDS011;17649;51.836;8.330;2023-12-20T08:40:33;43.40;;;15.23;;
30966;SDS011;17649;51.836;8.330;2023-12-20T08:43:34;44.50;;;16.37;;
30966;SDS011;17649;51.836;8.330;2023-12-20T08:46:35;38.40;;;16.38;;
30966;SDS011;17649;51.836;8.330;2023-12-20T08:49:35;40.97;;;15.83;;
30966;SDS011;17649;51.836;8.330;2023-12-20T08:52:35;36.13;;;15.73;;
30966;SDS011;17649;51.836;8.330;2023-12-20T08:55:36;36.87;;;15.80;;
30966;SDS011;17649;51.836;8.330;2023-12-20T08:58:36;39.40;;;16.20;;
30966;SDS011;17649;51.836;8.330;2023-12-20T09:01:36;41.43;;;16.53;;
30966;SDS011;17649;51.836;8.330;2023-12-20T09:04:37;47.77;;;17.13;;
30966;SDS011;17649;51.836;8.330;2023-12-20T09:07:38;34.25;;;15.02;;
30966;SDS011;17649;51.836;8.330;2023-12-20T09:10:38;33.37;;;15.93;;
30966;SDS011;17649;51.836;8.330;2023-12-20T09:13:38;47.28;;;18.63;;
30966;SDS011;17649;51.836;8.330;2023-12-20T09:16:39;41.90;;;16.93;;
30966;SDS011;17649;51.836;8.330;2023-12-20T09:19:39;43.33;;;16.95;;
30966;SDS011;17649;51.836;8.330;2023-12-20T09:22:40;41.47;;;16.27;;
30966;SDS011;17649;51.836;8.330;2023-12-20T09:25:41;42.25;;;17.15;;
30966;SDS011;17649;51.836;8.330;2023-12-20T09:28:42;38.40;;;17.73;;
30966;SDS011;17649;51.836;8.330;2023-12-20T09:31:45;44.83;;;16.25;;
30966;SDS011;17649;51.836;8.330;2023-12-20T09:34:47;40.50;;;15.60;;
30966;SDS011;17649;51.836;8.330;2023-12-20T09:37:47;40.28;;;15.10;;
30966;SDS011;17649;51.836;8.330;2023-12-20T09:40:48;39.13;;;15.80;;
30966;SDS011;17649;51.836;8.330;2023-12-20T09:43:48;41.67;;;15.98;;
30966;SDS011;17649;51.836;8.330;2023-12-20T09:46:52;47.00;;;15.65;;
30966;SDS011;17649;51.836;8.330;2023-12-20T09:49:54;42.13;;;15.82;;
30966;SDS011;17649;51.836;8.330;2023-12-20T09:52:55;37.25;;;16.27;;
30966;SDS011;17649;51.836;8.330;2023-12-20T09:55:59;41.92;;;15.23;;
30966;SDS011;17649;51.836;8.330;2023-12-20T09:59:02;38.67;;;14.87;;
30966;SDS011;17649;51.836;8.330;2023-12-20T10:02:03;41.23;;;15.17;;
30966;SDS011;17649;51.836;8.330;2023-12-20T10:05:10;44.70;;;15.18;;
30966;SDS011;17649;51.836;8.330;2023-12-20T10:08:16;43.78;;;16.17;;
30966;SDS011;17649;51.836;8.330;2023-12-20T10:11:16;41.78;;;15.90;;
30966;SDS011;17649;51.836;8.330;2023-12-20T10:14:17;29.27;;;14.10;;
30966;SDS011;17649;51.836;8.330;2023-12-20T10:17:18;36.87;;;14.43;;
30966;SDS011;17649;51.836;8.330;2023-12-20T10:20:18;41.83;;;15.30;;
30966;SDS011;17649;51.836;8.330;2023-12-20T10:23:19;33.33;;;13.73;;
30966;SDS011;17649;51.836;8.330;2023-12-20T10:26:23;35.28;;;13.73;;
30966;SDS011;17649;51.836;8.330;2023-12-20T10:29:24;48.03;;;15.35;;
30966;SDS011;17649;51.836;8.330;2023-12-20T10:32:26;38.90;;;15.57;;
30966;SDS011;17649;51.836;8.330;2023-12-20T10:35:27;40.65;;;15.02;;
30966;SDS011;17649;51.836;8.330;2023-12-20T10:38:27;36.87;;;13.50;;
30966;SDS011;17649;51.836;8.330;2023-12-20T10:41:30;29.33;;;13.23;;
30966;SDS011;17649;51.836;8.330;2023-12-20T10:44:32;39.40;;;12.93;;
30966;SDS011;17649;51.836;8.330;2023-12-20T10:47:33;34.77;;;13.13;;
30966;SDS011;17649;51.836;8.330;2023-12-20T10:50:34;32.87;;;13.13;;
30966;SDS011;17649;51.836;8.330;2023-12-20T10:53:38;39.00;;;13.27;;
30966;SDS011;17649;51.836;8.330;2023-12-20T10:56:40;34.15;;;12.90;;
30966;SDS011;17649;51.836;8.330;2023-12-20T10:59:40;28.33;;;11.10;;
30966;SDS011;17649;51.836;8.330;2023-12-20T11:02:42;32.53;;;12.30;;
30966;SDS011;17649;51.836;8.330;2023-12-20T11:26:06;26.63;;;9.85;;
30966;SDS011;17649;51.836;8.330;2023-12-20T11:32:33;31.45;;;8.20;;
30966;SDS011;17649;51.836;8.330;2023-12-20T11:35:35;29.13;;;9.75;;
30966;SDS011;17649;51.836;8.330;2023-12-20T11:38:36;27.90;;;10.07;;
30966;SDS011;17649;51.836;8.330;2023-12-20T11:41:37;26.93;;;8.37;;
30966;SDS011;17649;51.836;8.330;2023-12-20T11:44:37;21.35;;;6.78;;
30966;SDS011;17649;51.836;8.330;2023-12-20T11:47:38;17.33;;;5.67;;
30966;SDS011;17649;51.836;8.330;2023-12-20T11:50:38;15.77;;;6.67;;
30966;SDS011;17649;51.836;8.330;2023-12-20T11:53:40;19.77;;;6.97;;
30966;SDS011;17649;51.836;8.330;2023-12-20T11:56:42;17.85;;;7.22;;
30966;SDS011;17649;51.836;8.330;2023-12-20T11:59:42;28.17;;;8.10;;
30966;SDS011;17649;51.836;8.330;2023-12-20T12:02:43;23.85;;;6.82;;
30966;SDS011;17649;51.836;8.330;2023-12-20T12:05:43;18.50;;;7.43;;
30966;SDS011;17649;51.836;8.330;2023-12-20T12:08:47;20.15;;;7.47;;
30966;SDS011;17649;51.836;8.330;2023-12-20T12:11:47;18.63;;;5.63;;
30966;SDS011;17649;51.836;8.330;2023-12-20T12:14:48;18.35;;;6.90;;
30966;SDS011;17649;51.836;8.330;2023-12-20T12:17:52;18.35;;;5.90;;
30966;SDS011;17649;51.836;8.330;2023-12-20T12:21:02;18.58;;;6.38;;
30966;SDS011;17649;51.836;8.330;2023-12-20T12:24:06;18.65;;;6.15;;
30966;SDS011;17649;51.836;8.330;2023-12-20T12:27:07;17.63;;;6.78;;
30966;SDS011;17649;51.836;8.330;2023-12-20T12:30:08;18.90;;;6.10;;
30966;SDS011;17649;51.836;8.330;2023-12-20T12:33:10;18.63;;;5.47;;
30966;SDS011;17649;51.836;8.330;2023-12-20T12:36:12;23.58;;;6.78;;
30966;SDS011;17649;51.836;8.330;2023-12-20T12:39:12;21.17;;;6.32;;
30966;SDS011;17649;51.836;8.330;2023-12-20T12:42:15;18.00;;;6.10;;
30966;SDS011;17649;51.836;8.330;2023-12-20T12:45:15;19.53;;;6.03;;
30966;SDS011;17649;51.836;8.330;2023-12-20T12:48:16;15.37;;;5.80;;
30966;SDS011;17649;51.836;8.330;2023-12-20T12:51:16;22.70;;;6.43;;
30966;SDS011;17649;51.836;8.330;2023-12-20T12:54:17;27.43;;;6.77;;
30966;SDS011;17649;51.836;8.330;2023-12-20T12:57:18;17.40;;;5.93;;
30966;SDS011;17649;51.836;8.330;2023-12-20T13:00:18;17.47;;;6.80;;
30966;SDS011;17649;51.836;8.330;2023-12-20T13:03:19;20.15;;;5.75;;
30966;SDS011;17649;51.836;8.330;2023-12-20T13:06:20;19.90;;;5.53;;
30966;SDS011;17649;51.836;8.330;2023-12-20T13:09:20;20.40;;;5.85;;
30966;SDS011;17649;51.836;8.330;2023-12-20T13:12:21;20.13;;;5.83;;
30966;SDS011;17649;51.836;8.330;2023-12-20T13:15:21;20.20;;;5.82;;
30966;SDS011;17649;51.836;8.330;2023-12-20T13:18:22;18.27;;;5.47;;
30966;SDS011;17649;51.836;8.330;2023-12-20T13:21:22;23.83;;;6.10;;
30966;SDS011;17649;51.836;8.330;2023-12-20T13:24:23;16.13;;;6.20;;
30966;SDS011;17649;51.836;8.330;2023-12-20T13:27:23;16.43;;;5.43;;
30966;SDS011;17649;51.836;8.330;2023-12-20T13:30:25;18.70;;;5.40;;
30966;SDS011;17649;51.836;8.330;2023-12-20T13:33:25;17.97;;;5.63;;
30966;SDS011;17649;51.836;8.330;2023-12-20T13:36:25;18.10;;;5.70;;
30966;SDS011;17649;51.836;8.330;2023-12-20T13:39:26;19.77;;;5.93;;
30966;SDS011;17649;51.836;8.330;2023-12-20T13:42:26;16.48;;;5.35;;
30966;SDS011;17649;51.836;8.330;2023-12-20T13:45:27;21.27;;;7.03;;
30966;SDS011;17649;51.836;8.330;2023-12-20T13:48:27;19.63;;;6.10;;
30966;SDS011;17649;51.836;8.330;2023-12-20T13:51:28;20.10;;;6.90;;
30966;SDS011;17649;51.836;8.330;2023-12-20T13:54:28;27.40;;;6.50;;
30966;SDS011;17649;51.836;8.330;2023-12-20T13:57:28;25.10;;;7.10;;
30966;SDS011;17649;51.836;8.330;2023-12-20T14:00:29;17.67;;;6.20;;
30966;SDS011;17649;51.836;8.330;2023-12-20T14:03:29;21.45;;;8.10;;
30966;SDS011;17649;51.836;8.330;2023-12-20T14:06:31;19.00;;;7.35;;
30966;SDS011;17649;51.836;8.330;2023-12-20T14:09:32;22.98;;;7.35;;
30966;SDS011;17649;51.836;8.330;2023-12-20T14:12:32;25.47;;;8.47;;
30966;SDS011;17649;51.836;8.330;2023-12-20T14:15:36;25.08;;;9.82;;
30966;SDS011;17649;51.836;8.330;2023-12-20T14:18:37;23.15;;;8.63;;
30966;SDS011;17649;51.836;8.330;2023-12-20T14:21:37;26.37;;;9.07;;
30966;SDS011;17649;51.836;8.330;2023-12-20T14:24:37;24.53;;;9.03;;
30966;SDS011;17649;51.836;8.330;2023-12-20T14:27:38;23.33;;;9.88;;
30966;SDS011;17649;51.836;8.330;2023-12-20T14:30:40;18.97;;;8.03;;
30966;SDS011;17649;51.836;8.330;2023-12-20T14:33:40;22.33;;;8.90;;
30966;SDS011;17649;51.836;8.330;2023-12-20T14:36:42;22.97;;;8.60;;
30966;SDS011;17649;51.836;8.330;2023-12-20T14:39:42;23.60;;;8.50;;
30966;SDS011;17649;51.836;8.330;2023-12-20T14:42:43;22.73;;;8.03;;
30966;SDS011;17649;51.836;8.330;2023-12-20T14:45:46;26.17;;;8.70;;
30966;SDS011;17649;51.836;8.330;2023-12-20T14:48:46;21.73;;;7.40;;
30966;SDS011;17649;51.836;8.330;2023-12-20T14:51:48;20.20;;;7.70;;
30966;SDS011;17649;51.836;8.330;2023-12-20T14:54:48;25.57;;;7.50;;
30966;SDS011;17649;51.836;8.330;2023-12-20T14:57:49;26.83;;;7.93;;
30966;SDS011;17649;51.836;8.330;2023-12-20T15:00:49;19.38;;;8.25;;
30966;SDS011;17649;51.836;8.330;2023-12-20T15:03:49;20.87;;;8.27;;
30966;SDS011;17649;51.836;8.330;2023-12-20T15:06:50;23.73;;;8.77;;
30966;SDS011;17649;51.836;8.330;2023-12-20T15:09:50;27.05;;;8.75;;
30966;SDS011;17649;51.836;8.330;2023-12-20T15:12:50;21.93;;;9.10;;
30966;SDS011;17649;51.836;8.330;2023-12-20T15:15:51;22.97;;;9.17;;
30966;SDS011;17649;51.836;8.330;2023-12-20T15:18:51;31.50;;;10.47;;
30966;SDS011;17649;51.836;8.330;2023-12-20T15:21:53;26.38;;;10.45;;
30966;SDS011;17649;51.836;8.330;2023-12-20T15:24:53;29.50;;;11.30;;
30966;SDS011;17649;51.836;8.330;2023-12-20T15:27:55;25.08;;;11.60;;
30966;SDS011;17649;51.836;8.330;2023-12-20T15:30:55;29.40;;;13.00;;
30966;SDS011;17649;51.836;8.330;2023-12-20T15:33:56;39.20;;;14.70;;
30966;SDS011;17649;51.836;8.330;2023-12-20T15:36:57;33.80;;;15.13;;
30966;SDS011;17649;51.836;8.330;2023-12-20T15:39:57;33.27;;;14.30;;
30966;SDS011;17649;51.836;8.330;2023-12-20T15:42:57;31.27;;;15.02;;
30966;SDS011;17649;51.836;8.330;2023-12-20T15:45:59;30.08;;;14.15;;
30966;SDS011;17649;51.836;8.330;2023-12-20T15:48:59;33.38;;;15.63;;
30966;SDS011;17649;51.836;8.330;2023-12-20T15:52:00;33.93;;;15.40;;
30966;SDS011;17649;51.836;8.330;2023-12-20T15:55:01;35.35;;;16.17;;
30966;SDS011;17649;51.836;8.330;2023-12-20T15:58:01;31.57;;;16.33;;
30966;SDS011;17649;51.836;8.330;2023-12-20T16:01:02;31.73;;;17.05;;
30966;SDS011;17649;51.836;8.330;2023-12-20T16:04:02;36.47;;;17.53;;
30966;SDS011;17649;51.836;8.330;2023-12-20T16:07:03;35.63;;;16.98;;
30966;SDS011;17649;51.836;8.330;2023-12-20T16:10:03;30.40;;;16.07;;
30966;SDS011;17649;51.836;8.330;2023-12-20T16:13:05;35.30;;;16.63;;
30966;SDS011;17649;51.836;8.330;2023-12-20T16:16:06;33.23;;;16.47;;
30966;SDS011;17649;51.836;8.330;2023-12-20T16:19:06;31.07;;;16.40;;
30966;SDS011;17649;51.836;8.330;2023-12-20T16:22:07;35.75;;;17.00;;
30966;SDS011;17649;51.836;8.330;2023-12-20T16:25:07;35.77;;;17.93;;
30966;SDS011;17649;51.836;8.330;2023-12-20T16:28:08;33.55;;;17.38;;
30966;SDS011;17649;51.836;8.330;2023-12-20T16:31:08;44.73;;;19.67;;
30966;SDS011;17649;51.836;8.330;2023-12-20T16:34:09;34.33;;;18.57;;
30966;SDS011;17649;51.836;8.330;2023-12-20T16:37:10;39.00;;;19.35;;
30966;SDS011;17649;51.836;8.330;2023-12-20T16:40:11;43.37;;;20.30;;
30966;SDS011;17649;51.836;8.330;2023-12-20T16:43:11;38.33;;;19.13;;
30966;SDS011;17649;51.836;8.330;2023-12-20T16:46:12;44.47;;;20.80;;
30966;SDS011;17649;51.836;8.330;2023-12-20T16:49:13;40.75;;;20.83;;
30966;SDS011;17649;51.836;8.330;2023-12-20T16:52:13;35.13;;;19.02;;
30966;SDS011;17649;51.836;8.330;2023-12-20T16:55:13;42.43;;;19.43;;
30966;SDS011;17649;51.836;8.330;2023-12-20T16:58:14;38.38;;;19.27;;
30966;SDS011;17649;51.836;8.330;2023-12-20T17:01:14;42.13;;;19.00;;
30966;SDS011;17649;51.836;8.330;2023-12-20T17:04:15;41.88;;;19.40;;
30966;SDS011;17649;51.836;8.330;2023-12-20T17:07:16;36.77;;;17.50;;
30966;SDS011;17649;51.836;8.330;2023-12-20T17:10:17;40.85;;;17.40;;
30966;SDS011;17649;51.836;8.330;2023-12-20T17:13:17;40.83;;;17.33;;
30966;SDS011;17649;51.836;8.330;2023-12-20T17:16:18;37.83;;;16.67;;
30966;SDS011;17649;51.836;8.330;2023-12-20T17:19:18;38.13;;;16.35;;
30966;SDS011;17649;51.836;8.330;2023-12-20T17:22:20;41.33;;;15.65;;
30966;SDS011;17649;51.836;8.330;2023-12-20T17:25:20;40.00;;;17.42;;
30966;SDS011;17649;51.836;8.330;2023-12-20T17:28:21;42.42;;;18.55;;
30966;SDS011;17649;51.836;8.330;2023-12-20T17:31:22;40.50;;;19.33;;
30966;SDS011;17649;51.836;8.330;2023-12-20T17:34:22;46.57;;;20.93;;
30966;SDS011;17649;51.836;8.330;2023-12-20T17:37:22;43.03;;;20.40;;
30966;SDS011;17649;51.836;8.330;2023-12-20T17:40:23;42.77;;;20.17;;
30966;SDS011;17649;51.836;8.330;2023-12-20T17:43:23;46.20;;;20.80;;
30966;SDS011;17649;51.836;8.330;2023-12-20T17:46:23;45.97;;;20.47;;
30966;SDS011;17649;51.836;8.330;2023-12-20T17:49:24;42.87;;;20.83;;
30966;SDS011;17649;51.836;8.330;2023-12-20T17:52:24;47.70;;;22.77;;
30966;SDS011;17649;51.836;8.330;2023-12-20T17:55:25;43.47;;;22.13;;
30966;SDS011;17649;51.836;8.330;2023-12-20T17:58:26;43.13;;;20.75;;
30966;SDS011;17649;51.836;8.330;2023-12-20T18:01:26;38.83;;;19.95;;
30966;SDS011;17649;51.836;8.330;2023-12-20T18:04:27;41.50;;;21.03;;
30966;SDS011;17649;51.836;8.330;2023-12-20T18:07:27;46.83;;;23.03;;
30966;SDS011;17649;51.836;8.330;2023-12-20T18:10:27;45.38;;;22.85;;